Time,TemperatureF,DewpointF,PressureIn,WindDirection,WindDirectionDegrees,WindSpeedMPH,WindSpeedGustMPH,Humidity,HourlyPrecipIn,Conditions,Clouds,dailyrainin,SoftwareType,DateUTC
2013-05-28 00:02:00,54.2,53.7,29.75,ENE,75,5.0,7.0,98,0.00,,OVC007,0.00,VWS V14.01,2013-05-28 05:02:00,
2013-05-28 00:08:00,54.1,53.5,29.75,East,101,4.0,9.0,98,0.00,,OVC007,0.00,VWS V14.01,2013-05-28 05:08:00,
2013-05-28 00:14:00,54.0,53.5,29.75,East,79,5.0,10.0,98,0.00,,OVC007,0.00,VWS V14.01,2013-05-28 05:14:00,
2013-05-28 00:20:00,54.0,53.5,29.75,ESE,103,6.0,9.0,98,0.00,,OVC007,0.00,VWS V14.01,2013-05-28 05:20:00,
2013-05-28 00:25:00,54.0,53.5,29.76,East,85,5.0,7.0,98,0.00,,OVC007,0.00,VWS V14.01,2013-05-28 05:25:00,
2013-05-28 00:30:00,54.0,53.5,29.76,East,81,8.0,9.0,98,0.00,,OVC007,0.00,VWS V14.01,2013-05-28 05:30:00,
2013-05-28 00:35:00,54.0,53.5,29.76,ENE,60,3.0,9.0,98,0.00,,OVC007,0.00,VWS V14.01,2013-05-28 05:35:00,
2013-05-28 00:40:00,53.9,53.3,29.76,ENE,77,7.0,7.0,98,0.00,,OVC007,0.00,VWS V14.01,2013-05-28 05:40:00,
2013-05-28 00:45:00,53.8,53.2,29.75,East,94,6.0,7.0,98,0.00,,OVC007,0.00,VWS V14.01,2013-05-28 05:45:00,
2013-05-28 00:50:00,53.8,53.2,29.75,ENE,78,9.0,9.0,98,0.00,,OVC007,0.00,VWS V14.01,2013-05-28 05:50:00,
2013-05-28 00:55:00,53.7,53.2,29.75,ENE,68,3.0,9.0,98,0.00,,OVC007,0.00,VWS V14.01,2013-05-28 05:55:00,
2013-05-28 01:01:00,53.6,53.0,29.74,ENE,64,5.0,9.0,98,0.00,,OVC007,0.00,VWS V14.01,2013-05-28 06:01:00,
2013-05-28 01:07:00,53.5,53.0,29.73,ESE,114,3.0,5.0,98,0.00,,OVC007,0.00,VWS V14.01,2013-05-28 06:07:00,
2013-05-28 01:13:00,53.3,52.8,29.73,East,95,5.0,6.0,98,0.00,,OVC007,0.00,VWS V14.01,2013-05-28 06:13:00,
2013-05-28 01:19:00,53.2,52.7,29.73,ENE,74,8.0,8.0,98,0.00,,OVC007,0.00,VWS V14.01,2013-05-28 06:19:00,
2013-05-28 01:25:00,53.2,52.7,29.73,ENE,72,2.0,9.0,98,0.00,,OVC007,0.00,VWS V14.01,2013-05-28 06:25:00,
2013-05-28 01:30:00,53.1,52.5,29.72,ESE,103,6.0,9.0,98,0.00,,OVC007,0.00,VWS V14.01,2013-05-28 06:30:00,
2013-05-28 01:35:00,53.1,52.5,29.72,East,89,7.0,10.0,98,0.00,,,0.00,VWS V14.01,2013-05-28 06:35:00,
2013-05-28 01:40:00,53.0,52.5,29.72,East,84,5.0,8.0,98,0.00,,,0.00,VWS V14.01,2013-05-28 06:40:00,
2013-05-28 01:45:00,53.0,52.5,29.72,ENE,70,6.0,8.0,98,0.00,,,0.00,VWS V14.01,2013-05-28 06:45:00,
2013-05-28 01:50:00,52.9,52.3,29.71,East,91,4.0,11.0,98,0.00,,,0.00,VWS V14.01,2013-05-28 06:50:00,
2013-05-28 01:55:00,52.8,52.2,29.70,East,95,13.0,13.0,98,0.00,,,0.00,VWS V14.01,2013-05-28 06:55:00,
2013-05-28 02:00:00,52.8,52.2,29.69,NE,49,5.0,9.0,98,0.00,,,0.00,VWS V14.01,2013-05-28 07:00:00,
2013-05-28 02:05:00,52.7,52.2,29.69,ENE,78,5.0,10.0,98,0.00,,OVC007,0.00,VWS V14.01,2013-05-28 07:05:00,
2013-05-28 02:11:00,52.7,52.2,29.69,East,92,5.0,9.0,98,0.00,,OVC007,0.00,VWS V14.01,2013-05-28 07:11:00,
2013-05-28 02:17:00,52.6,52.0,29.69,East,79,8.0,10.0,98,0.00,,,0.00,VWS V14.01,2013-05-28 07:17:00,
2013-05-28 02:23:00,52.6,52.0,29.69,East,96,7.0,9.0,98,0.00,,,0.00,VWS V14.01,2013-05-28 07:23:00,
2013-05-28 02:29:00,52.6,52.0,29.69,East,81,8.0,8.0,98,0.00,,,0.00,VWS V14.01,2013-05-28 07:29:00,
2013-05-28 02:35:00,52.5,52.0,29.69,ENE,67,6.0,8.0,98,0.00,,OVC005,0.00,VWS V14.01,2013-05-28 07:35:00,
2013-05-28 02:40:00,52.5,52.0,29.69,East,84,9.0,9.0,98,0.00,,OVC005,0.00,VWS V14.01,2013-05-28 07:40:00,
2013-05-28 02:45:00,52.5,52.0,29.70,East,83,7.0,9.0,98,0.00,,OVC005,0.00,VWS V14.01,2013-05-28 07:45:00,
2013-05-28 02:50:00,52.5,52.0,29.71,East,90,6.0,7.0,98,0.00,,OVC005,0.00,VWS V14.01,2013-05-28 07:50:00,
2013-05-28 02:55:00,52.5,52.0,29.70,ESE,104,2.0,10.0,98,0.00,,OVC005,0.00,VWS V14.01,2013-05-28 07:55:00,
2013-05-28 03:00:00,52.5,52.0,29.70,NE,54,7.0,8.0,98,0.00,,OVC005,0.00,VWS V14.01,2013-05-28 08:00:00,
2013-05-28 03:07:00,52.5,52.0,29.70,NE,49,8.0,9.0,98,0.00,,OVC005,0.00,VWS V14.01,2013-05-28 08:07:00,
2013-05-28 03:13:00,52.5,52.0,29.69,East,82,8.0,13.0,98,0.00,,OVC005,0.00,VWS V14.01,2013-05-28 08:13:00,
2013-05-28 03:19:00,52.4,51.8,29.69,NE,56,5.0,9.0,98,0.00,,OVC005,0.00,VWS V14.01,2013-05-28 08:19:00,
2013-05-28 03:25:00,52.4,51.8,29.69,East,79,6.0,11.0,98,0.00,,OVC005,0.00,VWS V14.01,2013-05-28 08:25:00,
2013-05-28 03:30:00,52.4,51.8,29.68,East,80,6.0,8.0,98,0.00,,OVC005,0.00,VWS V14.01,2013-05-28 08:30:00,
2013-05-28 03:35:00,52.4,51.8,29.68,East,94,6.0,10.0,98,0.00,,OVC005,0.00,VWS V14.01,2013-05-28 08:35:00,
2013-05-28 03:40:00,52.4,51.8,29.67,East,82,8.0,11.0,98,0.00,,OVC005,0.00,VWS V14.01,2013-05-28 08:40:00,
2013-05-28 03:45:00,52.3,51.8,29.68,ESE,105,4.0,8.0,98,0.00,,OVC005,0.00,VWS V14.01,2013-05-28 08:45:00,
2013-05-28 03:50:00,52.4,51.8,29.68,SE,125,7.0,8.0,98,0.00,,OVC005,0.00,VWS V14.01,2013-05-28 08:50:00,
2013-05-28 03:55:00,52.3,51.8,29.68,ENE,77,6.0,8.0,98,0.00,,OVC005,0.00,VWS V14.01,2013-05-28 08:55:00,
2013-05-28 04:00:00,52.3,51.8,29.69,ESE,109,4.0,7.0,98,0.00,,OVC005,0.00,VWS V14.01,2013-05-28 09:00:00,
2013-05-28 04:05:00,52.3,51.8,29.68,ENE,61,5.0,6.0,98,0.00,,OVC005,0.00,VWS V14.01,2013-05-28 09:05:00,
2013-05-28 04:11:00,52.3,51.8,29.68,NNE,25,0.0,4.0,98,0.00,,OVC005,0.00,VWS V14.01,2013-05-28 09:11:00,
2013-05-28 04:17:00,52.3,51.8,29.68,East,100,6.0,6.0,98,0.00,,OVC003,0.00,VWS V14.01,2013-05-28 09:17:00,
2013-05-28 04:23:00,52.2,51.9,29.69,East,92,6.0,9.0,99,0.00,,OVC003,0.00,VWS V14.01,2013-05-28 09:23:00,
2013-05-28 04:30:00,52.2,51.9,29.69,ENE,73,4.0,6.0,99,0.00,,OVC003,0.00,VWS V14.01,2013-05-28 09:30:00,
2013-05-28 04:35:00,52.2,51.9,29.68,East,92,5.0,6.0,99,0.00,,OVC003,0.00,VWS V14.01,2013-05-28 09:35:00,
2013-05-28 05:01:00,52.2,51.9,29.68,East,90,5.0,9.0,99,0.00,,,0.00,VWS V14.01,2013-05-28 10:01:00,
2013-05-28 05:07:00,52.2,51.9,29.68,East,97,4.0,6.0,99,0.00,,,0.00,VWS V14.01,2013-05-28 10:07:00,
2013-05-28 05:13:00,52.2,51.9,29.68,East,89,8.0,8.0,99,0.01,,,0.01,VWS V14.01,2013-05-28 10:13:00,
2013-05-28 05:19:00,52.1,51.8,29.68,East,81,6.0,9.0,99,0.01,,OVC003,0.01,VWS V14.01,2013-05-28 10:19:00,
2013-05-28 05:25:00,52.1,51.8,29.67,ESE,102,2.0,6.0,99,0.01,,OVC003,0.01,VWS V14.01,2013-05-28 10:25:00,
2013-05-28 05:30:00,52.1,51.8,29.67,ENE,65,6.0,9.0,99,0.01,,OVC003,0.01,VWS V14.01,2013-05-28 10:30:00,
2013-05-28 05:35:00,52.1,51.8,29.68,East,96,4.0,7.0,99,0.01,,OVC003,0.01,VWS V14.01,2013-05-28 10:35:00,
2013-05-28 05:41:00,52.1,51.8,29.67,East,86,6.0,7.0,99,0.01,,OVC003,0.01,VWS V14.01,2013-05-28 10:41:00,
2013-05-28 05:47:00,52.1,51.8,29.67,East,92,2.0,4.0,99,0.01,,,0.01,VWS V14.01,2013-05-28 10:47:00,
2013-05-28 05:53:00,52.1,51.8,29.67,East,86,3.0,5.0,99,0.01,,,0.01,VWS V14.01,2013-05-28 10:53:00,
2013-05-28 05:59:00,52.0,51.7,29.67,East,94,2.0,5.0,99,0.01,,,0.01,VWS V14.01,2013-05-28 10:59:00,
2013-05-28 06:05:00,52.0,51.7,29.67,East,89,2.0,6.0,99,0.02,,,0.02,VWS V14.01,2013-05-28 11:05:00,
2013-05-28 06:10:00,52.0,51.7,29.67,ESE,112,4.0,6.0,99,0.02,,,0.02,VWS V14.01,2013-05-28 11:10:00,
2013-05-28 06:15:00,52.0,51.7,29.67,East,85,2.0,5.0,99,0.01,,,0.02,VWS V14.01,2013-05-28 11:15:00,
2013-05-28 06:20:00,52.1,51.8,29.67,East,81,1.0,6.0,99,0.01,,,0.02,VWS V14.01,2013-05-28 11:20:00,
2013-05-28 06:25:00,52.0,51.7,29.66,East,82,2.0,7.0,99,0.01,,,0.02,VWS V14.01,2013-05-28 11:25:00,
2013-05-28 06:30:00,52.1,51.8,29.66,East,79,1.0,3.0,99,0.01,,,0.02,VWS V14.01,2013-05-28 11:30:00,
2013-05-28 06:35:00,52.1,51.8,29.66,East,95,2.0,4.0,99,0.01,,,0.02,VWS V14.01,2013-05-28 11:35:00,
2013-05-28 06:40:00,52.1,51.8,29.66,ESE,103,3.0,4.0,99,0.01,,,0.02,VWS V14.01,2013-05-28 11:40:00,
2013-05-28 06:45:00,52.1,51.8,29.66,East,96,2.0,5.0,99,0.01,,,0.02,VWS V14.01,2013-05-28 11:45:00,
2013-05-28 06:50:00,52.1,51.8,29.66,ESE,107,1.0,5.0,99,0.01,,,0.02,VWS V14.01,2013-05-28 11:50:00,
2013-05-28 06:55:00,52.1,51.8,29.66,ENE,57,3.0,6.0,99,0.01,,,0.02,VWS V14.01,2013-05-28 11:55:00,
2013-05-28 07:00:00,52.1,51.8,29.66,East,79,3.0,5.0,99,0.01,,,0.02,VWS V14.01,2013-05-28 12:00:00,
2013-05-28 07:07:00,52.1,51.8,29.66,East,82,4.0,4.0,99,0.00,,,0.02,VWS V14.01,2013-05-28 12:07:00,
2013-05-28 07:13:00,52.1,51.8,29.66,ENE,70,3.0,3.0,99,0.00,,,0.02,VWS V14.01,2013-05-28 12:13:00,
2013-05-28 07:19:00,52.1,51.8,29.65,East,79,2.0,5.0,99,0.00,, +RA,0.02,VWS V14.01,2013-05-28 12:19:00,
2013-05-28 07:25:00,52.1,51.8,29.66,East,96,4.0,5.0,99,0.00,, +RA,0.02,VWS V14.01,2013-05-28 12:25:00,
2013-05-28 07:30:00,52.1,51.8,29.65,East,93,3.0,9.0,99,0.00,, +RA,0.02,VWS V14.01,2013-05-28 12:30:00,
2013-05-28 07:35:00,52.1,51.8,29.65,East,99,4.0,5.0,99,0.00,, +RA,0.02,VWS V14.01,2013-05-28 12:35:00,
2013-05-28 07:40:00,52.2,51.9,29.65,East,99,4.0,8.0,99,0.00,, +RA,0.02,VWS V14.01,2013-05-28 12:40:00,
2013-05-28 07:45:00,52.3,52.0,29.64,East,99,1.0,6.0,99,0.01,, +RA,0.03,VWS V14.01,2013-05-28 12:45:00,
2013-05-28 07:51:00,52.4,52.1,29.64,East,95,2.0,5.0,99,0.01,, +RA,0.03,VWS V14.01,2013-05-28 12:51:00,
2013-05-28 07:57:00,52.5,52.2,29.64,East,86,2.0,4.0,99,0.01,, +RA,0.03,VWS V14.01,2013-05-28 12:57:00,
2013-05-28 08:03:00,52.5,52.2,29.64,East,79,3.0,5.0,99,0.01,, +RA,0.03,VWS V14.01,2013-05-28 13:03:00,
2013-05-28 08:09:00,52.5,52.2,29.64,East,82,1.0,4.0,99,0.01,, +RA,0.03,VWS V14.01,2013-05-28 13:09:00,
2013-05-28 08:15:00,52.5,52.2,29.64,East,88,0.0,6.0,99,0.01,, +RA,0.03,VWS V14.01,2013-05-28 13:15:00,
2013-05-28 08:20:00,52.7,52.4,29.64,ENE,77,4.0,5.0,99,0.01,, +RA,0.03,VWS V14.01,2013-05-28 13:20:00,
2013-05-28 08:25:00,52.7,52.4,29.64,ENE,64,0.0,4.0,99,0.01,, +RA,0.03,VWS V14.01,2013-05-28 13:25:00,
2013-05-28 08:30:00,52.8,52.5,29.64,ESE,115,5.0,8.0,99,0.01,, +RA,0.03,VWS V14.01,2013-05-28 13:30:00,
2013-05-28 08:35:00,52.8,52.5,29.64,ESE,106,1.0,5.0,99,0.01,,,0.03,VWS V14.01,2013-05-28 13:35:00,
2013-05-28 08:40:00,53.0,52.7,29.65,East,99,3.0,3.0,99,0.01,,,0.03,VWS V14.01,2013-05-28 13:40:00,
2013-05-28 08:46:00,52.9,52.6,29.65,East,86,1.0,1.0,99,0.00,,,0.03,VWS V14.01,2013-05-28 13:46:00,
2013-05-28 08:52:00,52.8,52.5,29.65,East,86,1.0,6.0,99,0.00,,,0.03,VWS V14.01,2013-05-28 13:52:00,
2013-05-28 08:58:00,52.7,52.4,29.66,ENE,70,2.0,4.0,99,0.00,,,0.03,VWS V14.01,2013-05-28 13:58:00,
2013-05-28 09:04:00,52.7,52.4,29.66,ENE,70,3.0,6.0,99,0.01,,,0.04,VWS V14.01,2013-05-28 14:04:00,
2013-05-28 09:11:00,52.8,52.5,29.66,East,98,3.0,5.0,99,0.03,,,0.06,VWS V14.01,2013-05-28 14:11:00,
2013-05-28 09:17:00,52.8,52.5,29.66,East,86,5.0,5.0,99,0.04,,OVC003,0.07,VWS V14.01,2013-05-28 14:17:00,
2013-05-28 09:23:00,52.9,52.6,29.66,East,79,3.0,3.0,99,0.04,,OVC003,0.07,VWS V14.01,2013-05-28 14:23:00,
2013-05-28 09:29:00,52.9,52.6,29.66,East,84,2.0,5.0,99,0.04,,OVC003,0.07,VWS V14.01,2013-05-28 14:29:00,
2013-05-28 09:35:00,53.1,52.8,29.66,East,101,4.0,4.0,99,0.05,,OVC003,0.08,VWS V14.01,2013-05-28 14:35:00,
2013-05-28 09:40:00,53.1,52.8,29.66,ENE,72,3.0,7.0,99,0.07,,OVC003,0.10,VWS V14.01,2013-05-28 14:40:00,
2013-05-28 09:45:00,53.1,52.8,29.66,ENE,77,3.0,4.0,99,0.07,,OVC003,0.10,VWS V14.01,2013-05-28 14:45:00,
2013-05-28 09:50:00,53.3,53.0,29.66,ESE,106,5.0,5.0,99,0.07,,RA,0.10,VWS V14.01,2013-05-28 14:50:00,
2013-05-28 09:57:00,53.3,53.0,29.66,ENE,70,1.0,6.0,99,0.07,,RA,0.10,VWS V14.01,2013-05-28 14:57:00,
2013-05-28 10:03:00,53.4,53.1,29.65,ESE,102,4.0,6.0,99,0.07,,RA,0.10,VWS V14.01,2013-05-28 15:03:00,
2013-05-28 10:09:00,53.7,53.4,29.65,East,79,4.0,6.0,99,0.05,,RA,0.10,VWS V14.01,2013-05-28 15:09:00,
2013-05-28 10:15:00,54.0,53.7,29.64,East,80,1.0,5.0,99,0.04,,RA,0.10,VWS V14.01,2013-05-28 15:15:00,
2013-05-28 10:20:00,54.0,53.7,29.65,East,79,2.0,7.0,99,0.03,,OVC005,0.10,VWS V14.01,2013-05-28 15:20:00,
2013-05-28 10:25:00,54.1,53.8,29.65,ESE,114,3.0,5.0,99,0.03,,OVC005,0.10,VWS V14.01,2013-05-28 15:25:00,
2013-05-28 10:30:00,54.0,53.7,29.65,East,90,4.0,8.0,99,0.03,,OVC005,0.10,VWS V14.01,2013-05-28 15:30:00,
2013-05-28 10:35:00,54.1,53.8,29.65,ESE,102,3.0,5.0,99,0.03,,,0.10,VWS V14.01,2013-05-28 15:35:00,
2013-05-28 10:40:00,53.8,53.5,29.66,NE,51,5.0,7.0,99,0.02,,,0.10,VWS V14.01,2013-05-28 15:40:00,
2013-05-28 10:45:00,53.8,53.5,29.66,East,97,3.0,6.0,99,0.00,,,0.10,VWS V14.01,2013-05-28 15:45:00,
2013-05-28 10:50:00,53.8,53.5,29.66,East,82,5.0,5.0,99,0.00,,,0.10,VWS V14.01,2013-05-28 15:50:00,
2013-05-28 10:55:00,53.8,53.5,29.66,ENE,61,3.0,7.0,99,0.00,,,0.10,VWS V14.01,2013-05-28 15:55:00,
2013-05-28 11:00:00,53.8,53.5,29.66,ESE,111,6.0,6.0,99,0.00,,,0.10,VWS V14.01,2013-05-28 16:00:00,
2013-05-28 11:05:00,53.8,53.5,29.65,East,91,2.0,6.0,99,0.00,,,0.10,VWS V14.01,2013-05-28 16:05:00,
2013-05-28 11:10:00,53.8,53.5,29.65,ENE,70,3.0,9.0,99,0.00,,,0.10,VWS V14.01,2013-05-28 16:10:00,
2013-05-28 11:15:00,53.8,53.5,29.65,ESE,104,5.0,8.0,99,0.00,,,0.10,VWS V14.01,2013-05-28 16:15:00,
2013-05-28 11:21:00,53.8,53.5,29.65,East,100,4.0,5.0,99,0.00,,OVC006,0.10,VWS V14.01,2013-05-28 16:21:00,
2013-05-28 11:27:00,53.8,53.5,29.65,ENE,72,5.0,5.0,99,0.00,,OVC006,0.10,VWS V14.01,2013-05-28 16:27:00,
2013-05-28 11:33:00,53.9,53.6,29.65,East,96,5.0,6.0,99,0.00,,OVC006,0.10,VWS V14.01,2013-05-28 16:33:00,
2013-05-28 11:39:00,54.1,53.8,29.65,East,96,4.0,10.0,99,0.00,,OVC006,0.10,VWS V14.01,2013-05-28 16:39:00,
2013-05-28 11:45:00,54.1,53.8,29.65,ENE,70,1.0,6.0,99,0.00,,OVC006,0.10,VWS V14.01,2013-05-28 16:45:00,
2013-05-28 11:50:00,54.3,54.0,29.65,ENE,75,3.0,5.0,99,0.00,,OVC006,0.10,VWS V14.01,2013-05-28 16:50:00,
2013-05-28 11:55:00,54.3,54.0,29.65,ENE,77,3.0,5.0,99,0.00,,OVC006,0.10,VWS V14.01,2013-05-28 16:55:00,
2013-05-28 12:01:00,54.4,54.1,29.65,ESE,105,3.0,5.0,99,0.00,,OVC006,0.10,VWS V14.01,2013-05-28 17:01:00,
2013-05-28 12:07:00,54.6,54.3,29.65,East,96,4.0,4.0,99,0.00,,OVC006,0.10,VWS V14.01,2013-05-28 17:07:00,
2013-05-28 12:13:00,54.8,54.5,29.65,East,96,3.0,5.0,99,0.00,,OVC006,0.10,VWS V14.01,2013-05-28 17:13:00,
2013-05-28 12:19:00,54.7,54.4,29.66,SE,124,2.0,3.0,99,0.00,,RA,0.10,VWS V14.01,2013-05-28 17:19:00,
2013-05-28 12:25:00,54.7,54.4,29.66,ESE,122,1.0,3.0,99,0.00,,RA,0.10,VWS V14.01,2013-05-28 17:25:00,
2013-05-28 12:30:00,54.7,54.4,29.67,ESE,106,0.0,2.0,99,0.00,,RA,0.10,VWS V14.01,2013-05-28 17:30:00,
2013-05-28 12:35:00,54.9,54.6,29.67,ESE,106,0.0,1.0,99,0.00,,RA,0.10,VWS V14.01,2013-05-28 17:35:00,
2013-05-28 12:41:00,55.0,54.7,29.67,ESE,106,0.0,0.0,99,0.00,,RA,0.10,VWS V14.01,2013-05-28 17:41:00,
2013-05-28 12:47:00,55.0,54.7,29.67,ESE,105,0.0,0.0,99,0.00,,,0.10,VWS V14.01,2013-05-28 17:47:00,
2013-05-28 12:53:00,55.3,55.0,29.67,ESE,105,0.0,0.0,99,0.01,,,0.11,VWS V14.01,2013-05-28 17:53:00,
2013-05-28 12:59:00,55.4,55.1,29.67,ESE,104,0.0,0.0,99,0.01,,,0.11,VWS V14.01,2013-05-28 17:59:00,
2013-05-28 13:05:00,55.6,55.3,29.66,ESE,104,0.0,0.0,99,0.01,,,0.11,VWS V14.01,2013-05-28 18:05:00,
2013-05-28 13:10:00,55.8,55.5,29.66,East,94,0.0,0.0,99,0.01,,,0.11,VWS V14.01,2013-05-28 18:10:00,
2013-05-28 13:15:00,55.9,55.6,29.66,East,98,0.0,0.0,99,0.02,,,0.12,VWS V14.01,2013-05-28 18:15:00,
2013-05-28 13:21:00,56.1,55.8,29.66,East,98,0.0,0.0,99,0.02,,,0.12,VWS V14.01,2013-05-28 18:21:00,
2013-05-28 13:26:00,56.2,55.9,29.66,East,98,0.0,0.0,99,0.02,,,0.12,VWS V14.01,2013-05-28 18:26:00,
2013-05-28 13:32:00,56.4,56.1,29.66,East,98,0.0,0.0,99,0.02,,,0.12,VWS V14.01,2013-05-28 18:32:00,
2013-05-28 13:38:00,56.6,56.3,29.66,SE,139,0.0,0.0,99,0.02,,,0.12,VWS V14.01,2013-05-28 18:38:00,
2013-05-28 13:44:00,56.7,56.4,29.66,SE,138,0.0,0.0,99,0.02,,,0.12,VWS V14.01,2013-05-28 18:44:00,
2013-05-28 13:50:00,57.0,56.7,29.66,ESE,123,0.0,0.0,99,0.02,,RA,0.12,VWS V14.01,2013-05-28 18:50:00,
2013-05-28 13:55:00,56.8,56.5,29.66,East,100,2.0,3.0,99,0.02,,RA,0.12,VWS V14.01,2013-05-28 18:55:00,
2013-05-28 14:01:00,57.0,56.7,29.66,ESE,111,3.0,3.0,99,0.01,,RA,0.12,VWS V14.01,2013-05-28 19:01:00,
2013-05-28 14:06:00,56.8,56.5,29.66,East,84,0.0,4.0,99,0.01,,RA,0.12,VWS V14.01,2013-05-28 19:06:00,
2013-05-28 14:12:00,56.9,56.6,29.66,ENE,77,0.0,0.0,99,0.01,,RA,0.12,VWS V14.01,2013-05-28 19:12:00,
2013-05-28 14:18:00,56.9,56.6,29.66,East,94,0.0,3.0,99,0.00,,,0.12,VWS V14.01,2013-05-28 19:18:00,
2013-05-28 14:24:00,57.1,56.8,29.66,East,82,2.0,4.0,99,0.00,,,0.12,VWS V14.01,2013-05-28 19:24:00,
2013-05-28 14:30:00,56.9,56.6,29.67,East,91,1.0,3.0,99,0.00,,,0.12,VWS V14.01,2013-05-28 19:30:00,
2013-05-28 14:35:00,57.0,56.7,29.67,ESE,104,0.0,2.0,99,0.00,,,0.12,VWS V14.01,2013-05-28 19:35:00,
2013-05-28 14:40:00,57.0,56.7,29.67,SE,127,1.0,2.0,99,0.00,,,0.12,VWS V14.01,2013-05-28 19:40:00,
2013-05-28 14:45:00,57.0,56.7,29.67,ESE,103,0.0,1.0,99,0.00,,,0.12,VWS V14.01,2013-05-28 19:45:00,
2013-05-28 14:50:00,57.1,56.8,29.68,ESE,102,0.0,2.0,99,0.00,,,0.12,VWS V14.01,2013-05-28 19:50:00,
2013-05-28 14:55:00,57.4,57.1,29.67,East,101,0.0,0.0,99,0.00,,,0.12,VWS V14.01,2013-05-28 19:55:00,
2013-05-28 15:00:00,57.3,57.0,29.68,ESE,102,1.0,1.0,99,0.00,,,0.12,VWS V14.01,2013-05-28 20:00:00,
2013-05-28 15:05:00,57.3,57.0,29.68,SE,144,0.0,1.0,99,0.00,,,0.12,VWS V14.01,2013-05-28 20:05:00,
2013-05-28 15:10:00,57.3,57.0,29.68,SE,146,0.0,0.0,99,0.00,,,0.12,VWS V14.01,2013-05-28 20:10:00,
2013-05-28 15:15:00,57.3,57.0,29.68,ESE,120,1.0,1.0,99,0.00,,,0.12,VWS V14.01,2013-05-28 20:15:00,
2013-05-28 15:20:00,57.1,56.8,29.68,ESE,111,0.0,1.0,99,0.00,,,0.12,VWS V14.01,2013-05-28 20:20:00,
2013-05-28 15:25:00,57.1,56.8,29.68,ESE,105,1.0,1.0,99,0.00,,,0.12,VWS V14.01,2013-05-28 20:25:00,
2013-05-28 15:30:00,57.1,56.8,29.68,ESE,105,0.0,1.0,99,0.00,,,0.12,VWS V14.01,2013-05-28 20:30:00,
2013-05-28 15:35:00,57.2,56.9,29.68,ESE,111,0.0,1.0,99,0.00,,,0.12,VWS V14.01,2013-05-28 20:35:00,
2013-05-28 15:40:00,57.3,57.0,29.68,ESE,108,0.0,1.0,99,0.00,,,0.12,VWS V14.01,2013-05-28 20:40:00,
2013-05-28 15:45:00,57.3,57.0,29.68,ESE,109,0.0,0.0,99,0.00,,,0.12,VWS V14.01,2013-05-28 20:45:00,
2013-05-28 15:50:00,57.3,57.0,29.68,ESE,109,0.0,0.0,99,0.00,,OVC008,0.12,VWS V14.01,2013-05-28 20:50:00,
2013-05-28 15:55:00,57.7,57.4,29.68,SSW,212,0.0,0.0,99,0.00,,OVC008,0.12,VWS V14.01,2013-05-28 20:55:00,
2013-05-28 16:00:00,57.7,57.4,29.68,West,259,0.0,2.0,99,0.00,,OVC008,0.12,VWS V14.01,2013-05-28 21:00:00,
2013-05-28 16:05:00,57.8,57.5,29.68,West,259,0.0,1.0,99,0.00,,OVC008,0.12,VWS V14.01,2013-05-28 21:05:00,
2013-05-28 16:10:00,57.9,57.6,29.68,West,259,0.0,0.0,99,0.00,,OVC008,0.12,VWS V14.01,2013-05-28 21:10:00,
2013-05-28 16:15:00,57.8,57.5,29.68,West,281,0.0,1.0,99,0.00,,OVC008,0.12,VWS V14.01,2013-05-28 21:15:00,
2013-05-28 16:20:00,57.9,57.6,29.68,West,276,1.0,2.0,99,0.00,,OVC006,0.12,VWS V14.01,2013-05-28 21:20:00,
2013-05-28 16:25:00,57.9,57.6,29.68,West,267,0.0,1.0,99,0.00,,OVC006,0.12,VWS V14.01,2013-05-28 21:25:00,
2013-05-28 16:30:00,57.9,57.6,29.68,NNW,330,1.0,1.0,99,0.00,,OVC006,0.12,VWS V14.01,2013-05-28 21:30:00,
2013-05-28 16:35:00,57.9,57.6,29.68,WSW,255,0.0,1.0,99,0.00,,OVC006,0.12,VWS V14.01,2013-05-28 21:35:00,
2013-05-28 16:40:00,58.0,57.7,29.67,WNW,288,0.0,0.0,99,0.00,,OVC006,0.12,VWS V14.01,2013-05-28 21:40:00,
2013-05-28 16:45:00,58.1,57.8,29.67,North,8,1.0,1.0,99,0.00,,OVC006,0.12,VWS V14.01,2013-05-28 21:45:00,
2013-05-28 16:50:00,58.1,57.8,29.68,North,6,1.0,1.0,99,0.00,,OVC006,0.12,VWS V14.01,2013-05-28 21:50:00,
2013-05-28 16:55:00,58.2,57.9,29.67,West,264,0.0,1.0,99,0.00,,OVC006,0.12,VWS V14.01,2013-05-28 21:55:00,
2013-05-28 17:00:00,58.2,57.9,29.67,WSW,252,0.0,1.0,99,0.00,,OVC006,0.12,VWS V14.01,2013-05-28 22:00:00,
2013-05-28 17:05:00,58.2,57.6,29.68,WNW,291,1.0,1.0,98,0.00,,OVC006,0.12,VWS V14.01,2013-05-28 22:05:00,
2013-05-28 17:12:00,58.4,58.1,29.68,WNW,290,0.0,0.0,99,0.00,,OVC006,0.12,VWS V14.01,2013-05-28 22:12:00,
2013-05-28 17:18:00,58.7,58.4,29.68,West,267,0.0,0.0,99,0.00,,OVC006,0.12,VWS V14.01,2013-05-28 22:18:00,
2013-05-28 17:24:00,58.6,58.0,29.67,SW,228,0.0,1.0,98,0.00,,OVC006,0.12,VWS V14.01,2013-05-28 22:24:00,
2013-05-28 17:30:00,58.9,58.6,29.67,SW,228,0.0,1.0,99,0.00,,OVC006,0.12,VWS V14.01,2013-05-28 22:30:00,
2013-05-28 17:35:00,58.8,58.2,29.67,West,267,1.0,2.0,98,0.00,,OVC006,0.12,VWS V14.01,2013-05-28 22:35:00,
2013-05-28 17:40:00,58.7,58.1,29.67,West,267,0.0,1.0,98,0.00,,OVC006,0.12,VWS V14.01,2013-05-28 22:40:00,
2013-05-28 17:45:00,58.6,58.3,29.67,West,267,0.0,0.0,99,0.00,,OVC006,0.12,VWS V14.01,2013-05-28 22:45:00,
2013-05-28 17:50:00,58.4,57.8,29.67,West,267,0.0,1.0,98,0.00,,OVC006,0.12,VWS V14.01,2013-05-28 22:50:00,
2013-05-28 17:55:00,58.5,58.2,29.67,West,267,0.0,0.0,99,0.00,,OVC006,0.12,VWS V14.01,2013-05-28 22:55:00,
2013-05-28 18:00:00,58.7,58.4,29.67,West,267,0.0,0.0,99,0.00,,OVC006,0.12,VWS V14.01,2013-05-28 23:00:00,
2013-05-28 18:05:00,58.8,58.5,29.66,West,268,0.0,0.0,99,0.00,,OVC006,0.12,VWS V14.01,2013-05-28 23:05:00,
2013-05-28 18:10:00,58.9,58.6,29.66,ESE,102,2.0,2.0,99,0.00,,OVC006,0.12,VWS V14.01,2013-05-28 23:10:00,
2013-05-28 18:15:00,58.8,58.5,29.67,ESE,103,0.0,3.0,99,0.00,,OVC006,0.12,VWS V14.01,2013-05-28 23:15:00,
2013-05-28 18:20:00,59.3,59.0,29.66,ENE,72,3.0,3.0,99,0.00,,OVC008,0.12,VWS V14.01,2013-05-28 23:20:00,
2013-05-28 18:25:00,59.4,59.1,29.67,ENE,72,1.0,3.0,99,0.00,,OVC008,0.12,VWS V14.01,2013-05-28 23:25:00,
2013-05-28 18:30:00,59.2,58.9,29.67,East,79,1.0,2.0,99,0.00,,OVC008,0.12,VWS V14.01,2013-05-28 23:30:00,
2013-05-28 18:35:00,59.2,58.9,29.67,SE,136,0.0,1.0,99,0.00,,OVC008,0.12,VWS V14.01,2013-05-28 23:35:00,
2013-05-28 18:40:00,59.3,59.0,29.68,SSW,212,1.0,2.0,99,0.00,,OVC008,0.12,VWS V14.01,2013-05-28 23:40:00,
2013-05-28 18:45:00,59.4,58.8,29.68,SE,143,0.0,2.0,98,0.00,,OVC008,0.12,VWS V14.01,2013-05-28 23:45:00,
2013-05-28 18:50:00,59.4,58.8,29.68,SW,225,0.0,2.0,98,0.00,,OVC008,0.12,VWS V14.01,2013-05-28 23:50:00,
2013-05-28 18:55:00,59.3,58.7,29.68,WSW,240,1.0,2.0,98,0.00,,OVC008,0.12,VWS V14.01,2013-05-28 23:55:00,
2013-05-28 19:00:00,59.3,58.7,29.68,SSE,156,0.0,1.0,98,0.00,,OVC008,0.12,VWS V14.01,2013-05-29 00:00:00,
2013-05-28 19:05:00,59.2,58.6,29.68,SSE,156,0.0,0.0,98,0.00,,OVC008,0.12,VWS V14.01,2013-05-29 00:05:00,
2013-05-28 19:10:00,59.1,58.5,29.68,SSW,201,0.0,1.0,98,0.00,,OVC008,0.12,VWS V14.01,2013-05-29 00:10:00,
2013-05-28 19:15:00,58.9,58.3,29.68,SW,222,0.0,1.0,98,0.00,,OVC008,0.12,VWS V14.01,2013-05-29 00:15:00,
2013-05-28 19:20:00,58.8,58.2,29.68,SW,214,1.0,1.0,98,0.00,,OVC008,0.12,VWS V14.01,2013-05-29 00:20:00,
2013-05-28 19:25:00,58.7,58.1,29.68,SW,214,0.0,1.0,98,0.00,,OVC008,0.12,VWS V14.01,2013-05-29 00:25:00,
2013-05-28 19:30:00,58.7,58.1,29.68,SSE,147,0.0,2.0,98,0.00,,OVC008,0.12,VWS V14.01,2013-05-29 00:30:00,
2013-05-28 19:35:00,58.5,57.9,29.68,ESE,118,0.0,1.0,98,0.00,,OVC008,0.12,VWS V14.01,2013-05-29 00:35:00,
2013-05-28 19:40:00,58.5,57.9,29.68,ESE,121,0.0,0.0,98,0.00,,OVC008,0.12,VWS V14.01,2013-05-29 00:40:00,
2013-05-28 19:45:00,58.5,57.9,29.68,ESE,121,1.0,1.0,98,0.00,,OVC008,0.12,VWS V14.01,2013-05-29 00:45:00,
2013-05-28 19:50:00,58.5,57.9,29.68,SSE,153,0.0,1.0,98,0.00,,OVC008,0.12,VWS V14.01,2013-05-29 00:50:00,
2013-05-28 19:55:00,58.4,57.8,29.68,East,91,1.0,1.0,98,0.00,,OVC008,0.12,VWS V14.01,2013-05-29 00:55:00,
2013-05-28 20:00:00,58.3,57.7,29.68,East,101,1.0,2.0,98,0.00,,OVC008,0.12,VWS V14.01,2013-05-29 01:00:00,
2013-05-28 20:05:00,58.2,57.6,29.68,ESE,102,1.0,1.0,98,0.00,,OVC008,0.12,VWS V14.01,2013-05-29 01:05:00,
2013-05-28 20:10:00,58.1,57.5,29.67,East,88,0.0,1.0,98,0.00,,OVC008,0.12,VWS V14.01,2013-05-29 01:10:00,
2013-05-28 20:15:00,58.1,57.5,29.67,East,88,0.0,1.0,98,0.00,,OVC008,0.12,VWS V14.01,2013-05-29 01:15:00,
2013-05-28 20:20:00,58.0,57.4,29.67,East,88,1.0,1.0,98,0.00,,OVC008,0.12,VWS V14.01,2013-05-29 01:20:00,
2013-05-28 20:25:00,57.9,57.3,29.67,East,88,0.0,1.0,98,0.00,,OVC008,0.12,VWS V14.01,2013-05-29 01:25:00,
2013-05-28 20:30:00,57.9,57.3,29.66,East,88,0.0,0.0,98,0.00,,OVC008,0.12,VWS V14.01,2013-05-29 01:30:00,
2013-05-28 20:35:00,57.8,57.2,29.66,East,88,0.0,0.0,98,0.00,,OVC008,0.12,VWS V14.01,2013-05-29 01:35:00,
2013-05-28 20:40:00,57.8,57.2,29.66,East,88,0.0,0.0,98,0.00,,OVC008,0.12,VWS V14.01,2013-05-29 01:40:00,
2013-05-28 20:46:00,57.7,57.1,29.66,East,88,0.0,0.0,98,0.00,,OVC008,0.12,VWS V14.01,2013-05-29 01:46:00,
2013-05-28 20:51:00,57.7,57.1,29.66,East,88,0.0,0.0,98,0.00,,,0.12,VWS V14.01,2013-05-29 01:51:00,
2013-05-28 20:57:00,57.6,57.0,29.66,ESE,111,0.0,0.0,98,0.00,,,0.12,VWS V14.01,2013-05-29 01:57:00,
2013-05-28 21:03:00,57.5,56.9,29.66,ESE,111,0.0,0.0,98,0.00,,,0.12,VWS V14.01,2013-05-29 02:03:00,
2013-05-28 21:09:00,57.4,56.8,29.66,ESE,111,0.0,0.0,98,0.00,,,0.12,VWS V14.01,2013-05-29 02:09:00,
2013-05-28 21:15:00,57.4,56.8,29.65,ESE,111,0.0,1.0,98,0.00,,,0.12,VWS V14.01,2013-05-29 02:15:00,
2013-05-28 21:20:00,57.4,56.8,29.66,ESE,112,0.0,0.0,98,0.00,,,0.12,VWS V14.01,2013-05-29 02:20:00,
2013-05-28 21:25:00,57.3,56.7,29.66,SSE,156,0.0,0.0,98,0.00,,,0.12,VWS V14.01,2013-05-29 02:25:00,
2013-05-28 21:30:00,57.3,56.7,29.66,SSE,156,0.0,0.0,98,0.00,,,0.12,VWS V14.01,2013-05-29 02:30:00,
2013-05-28 21:35:00,57.3,56.7,29.66,SSE,156,0.0,0.0,98,0.00,,,0.12,VWS V14.01,2013-05-29 02:35:00,
2013-05-28 21:40:00,57.2,56.6,29.67,SSE,156,0.0,0.0,98,0.00,,,0.12,VWS V14.01,2013-05-29 02:40:00,
2013-05-28 21:45:00,57.2,56.6,29.67,SSE,156,0.0,0.0,98,0.00,,,0.12,VWS V14.01,2013-05-29 02:45:00,
2013-05-28 21:50:00,57.2,56.6,29.67,SSE,156,0.0,0.0,98,0.00,,,0.12,VWS V14.01,2013-05-29 02:50:00,
2013-05-28 21:55:00,57.2,56.6,29.67,SSE,157,0.0,0.0,98,0.00,,,0.12,VWS V14.01,2013-05-29 02:55:00,
2013-05-28 22:00:00,57.3,56.7,29.68,SSE,155,1.0,1.0,98,0.00,,,0.12,VWS V14.01,2013-05-29 03:00:00,
2013-05-28 22:05:00,57.3,56.7,29.68,ESE,115,0.0,1.0,98,0.00,,,0.12,VWS V14.01,2013-05-29 03:05:00,
2013-05-28 22:10:00,57.2,56.6,29.69,ESE,115,0.0,0.0,98,0.00,,,0.12,VWS V14.01,2013-05-29 03:10:00,
2013-05-28 22:15:00,57.3,56.7,29.69,East,88,1.0,1.0,98,0.00,,,0.12,VWS V14.01,2013-05-29 03:15:00,
2013-05-28 22:20:00,57.3,56.7,29.69,East,88,0.0,1.0,98,0.00,,,0.12,VWS V14.01,2013-05-29 03:20:00,
2013-05-28 22:25:00,57.3,56.7,29.70,East,96,0.0,1.0,98,0.00,,,0.12,VWS V14.01,2013-05-29 03:25:00,
2013-05-28 22:30:00,57.2,56.6,29.70,ESE,122,1.0,3.0,98,0.00,,,0.12,VWS V14.01,2013-05-29 03:30:00,
2013-05-28 22:35:00,57.2,56.6,29.71,ESE,115,0.0,1.0,98,0.00,,,0.12,VWS V14.01,2013-05-29 03:35:00,
2013-05-28 22:40:00,57.3,56.7,29.71,SSW,212,0.0,1.0,98,0.00,,,0.12,VWS V14.01,2013-05-29 03:40:00,
2013-05-28 22:45:00,57.2,56.6,29.71,ESE,111,0.0,2.0,98,0.00,,,0.12,VWS V14.01,2013-05-29 03:45:00,
2013-05-28 22:50:00,57.2,56.6,29.71,East,96,1.0,1.0,98,0.00,,,0.12,VWS V14.01,2013-05-29 03:50:00,
2013-05-28 22:55:00,57.2,56.6,29.71,ESE,115,0.0,1.0,98,0.00,,,0.12,VWS V14.01,2013-05-29 03:55:00,
2013-05-28 23:00:00,57.2,56.6,29.72,ESE,122,0.0,0.0,98,0.00,,,0.12,VWS V14.01,2013-05-29 04:00:00,
2013-05-28 23:01:00,57.2,56.6,29.72,ESE,123,0.0,0.0,98,0.00,,,0.12,VWS V14.01,2013-05-29 04:01:00,
2013-05-28 23:03:00,57.2,56.6,29.72,SE,138,0.0,0.0,98,0.00,,,0.12,VWS V14.01,2013-05-29 04:03:00,
2013-05-28 23:05:00,57.2,56.6,29.72,SE,141,0.0,0.0,98,0.00,,,0.12,VWS V14.01,2013-05-29 04:05:00,
2013-05-28 23:10:00,57.1,56.5,29.72,SE,141,0.0,1.0,98,0.00,,,0.12,VWS V14.01,2013-05-29 04:10:00,
2013-05-28 23:15:00,57.1,56.5,29.72,South,184,0.0,1.0,98,0.00,,,0.12,VWS V14.01,2013-05-29 04:15:00,
2013-05-28 23:22:00,57.1,56.5,29.72,South,183,0.0,0.0,98,0.00,,,0.12,VWS V14.01,2013-05-29 04:22:00,
2013-05-28 23:28:00,57.1,56.5,29.72,South,180,0.0,0.0,98,0.00,,,0.12,VWS V14.01,2013-05-29 04:28:00,
2013-05-28 23:34:00,57.0,56.4,29.72,South,180,1.0,1.0,98,0.00,,,0.12,VWS V14.01,2013-05-29 04:34:00,
2013-05-28 23:40:00,57.0,56.4,29.72,South,180,0.0,0.0,98,0.00,,,0.12,VWS V14.01,2013-05-29 04:40:00,
2013-05-28 23:45:00,57.0,56.4,29.71,South,180,0.0,0.0,98,0.00,,,0.12,VWS V14.01,2013-05-29 04:45:00,
2013-05-28 23:50:00,57.0,56.4,29.71,ESE,111,1.0,1.0,98,0.00,,,0.12,VWS V14.01,2013-05-29 04:50:00,
2013-05-28 23:55:00,57.0,56.4,29.70,ENE,77,0.0,2.0,98,0.00,,,0.12,VWS V14.01,2013-05-29 04:55:00,